Time;durP1;ratioP1;P1;durP2;ratioP2;P2;SDS_P1;SDS_P2;PMS_P1;PMS_P2;Temp;Humidity;BMP_temperature;BMP_pressure;BME280_temperature;BME280_humidity;BME280_pressure;Samples;Min_cycle;Max_cycle;Signal;HPM_P1;HPM_P2
2021/01/25 00:00:14;;;;;;;47.87;24.87;;;;;;;0.33;90.98;98859.03;5034294;28;20518;-73
2021/01/25 00:02:39;;;;;;;20.57;15.67;;;;;;;0.34;90.68;98868.69;5032970;28;20171;-73
2021/01/25 00:05:06;;;;;;;16.47;10.33;;;;;;;0.37;90.93;98860.88;5032849;28;20425;-73
2021/01/25 00:07:32;;;;;;;11.53;10.27;;;;;;;0.38;90.57;98865.16;5032864;28;20180;-72
2021/01/25 00:09:57;;;;;;;28.23;16.67;;;;;;;0.39;90.28;98866.75;5034021;28;20478;-72
2021/01/25 00:12:22;;;;;;;44.83;24.23;;;;;;;0.39;90.52;98866.75;5034389;28;20203;-73
2021/01/25 00:14:48;;;;;;;32.13;18.77;;;;;;;0.39;90.80;98858.69;5034200;28;20176;-72
2021/01/25 00:17:13;;;;;;;25.53;17.17;;;;;;;0.39;90.56;98865.94;5033868;28;20180;-73
2021/01/25 00:19:38;;;;;;;19.30;14.03;;;;;;;0.40;90.92;98857.59;5033804;28;20273;-73
2021/01/25 00:22:04;;;;;;;18.40;12.17;;;;;;;0.41;90.86;98863.78;5033891;28;20179;-73
2021/01/25 00:24:29;;;;;;;35.63;19.13;;;;;;;0.44;90.81;98871.28;5033877;28;20179;-73
2021/01/25 00:26:54;;;;;;;27.43;16.87;;;;;;;0.44;90.43;98868.59;5033223;28;20194;-73
2021/01/25 00:29:20;;;;;;;35.57;19.23;;;;;;;0.43;90.17;98870.47;5034080;28;20207;-72
2021/01/25 00:31:45;;;;;;;39.83;25.33;;;;;;;0.44;90.78;98872.09;5033576;28;20184;-73
2021/01/25 00:34:10;;;;;;;42.97;25.10;;;;;;;0.43;90.36;98870.47;5033661;28;20655;-73
2021/01/25 00:36:35;;;;;;;28.10;15.03;;;;;;;0.44;90.32;98863.25;5031926;28;20187;-72
2021/01/25 00:39:01;;;;;;;20.23;11.90;;;;;;;0.44;90.40;98869.41;5033435;28;20186;-72
2021/01/25 00:41:27;;;;;;;31.20;22.37;;;;;;;0.45;89.68;98873.69;5032260;28;20208;-73
2021/01/25 00:43:52;;;;;;;10.00;9.03;;;;;;;0.45;89.59;98867.53;5033434;28;20179;-73
2021/01/25 00:46:18;;;;;;;27.73;14.10;;;;;;;0.44;89.62;98876.66;5032892;28;20423;-73
2021/01/25 00:48:43;;;;;;;29.57;19.00;;;;;;;0.43;89.58;98870.47;5033547;28;20741;-73
2021/01/25 00:51:08;;;;;;;14.97;12.27;;;;;;;0.44;89.81;98873.97;5033452;28;20544;-73
2021/01/25 00:53:33;;;;;;;15.67;9.43;;;;;;;0.46;88.87;98871.81;5033171;28;20207;-73
2021/01/25 00:55:59;;;;;;;27.60;13.73;;;;;;;0.44;88.75;98873.97;5033171;28;20824;-72
2021/01/25 00:58:24;;;;;;;26.67;15.53;;;;;;;0.44;88.65;98869.41;5032712;28;20579;-73
2021/01/25 01:00:50;;;;;;;30.53;16.37;;;;;;;0.43;89.02;98872.34;5033222;28;20537;-73
2021/01/25 01:03:15;;;;;;;17.43;13.33;;;;;;;0.41;88.98;98869.94;5016002;28;20653;-73
2021/01/25 01:05:40;;;;;;;18.00;12.40;;;;;;;0.43;88.42;98878.53;5012649;28;20208;-73
2021/01/25 01:08:06;;;;;;;24.23;17.97;;;;;;;0.41;88.69;98872.63;5011794;28;20187;-73
2021/01/25 01:10:31;;;;;;;9.73;7.77;;;;;;;0.44;88.07;98873.97;5013094;28;20180;-73
2021/01/25 01:12:56;;;;;;;28.00;20.87;;;;;;;0.42;88.54;98873.44;5013214;28;20501;-73
2021/01/25 01:15:22;;;;;;;18.00;11.80;;;;;;;0.42;88.01;98881.50;5011712;28;20181;-73
2021/01/25 01:17:47;;;;;;;9.57;7.87;;;;;;;0.42;87.88;98870.75;5012527;28;20755;-73
2021/01/25 01:20:13;;;;;;;14.40;10.40;;;;;;;0.40;88.21;98870.25;5012963;28;20255;-72
2021/01/25 01:22:38;;;;;;;13.23;8.60;;;;;;;0.38;88.46;98873.22;5013000;28;20699;-73
2021/01/25 01:25:07;;;;;;;22.70;15.90;;;;;;;0.33;87.97;98865.22;5012783;28;20300;-73
2021/01/25 01:27:32;;;;;;;10.87;9.83;;;;;;;0.30;87.87;98876.53;5012403;28;20181;-73
2021/01/25 01:29:58;;;;;;;17.37;13.77;;;;;;;0.26;87.64;98862.84;5012603;28;20662;-73
2021/01/25 01:32:23;;;;;;;14.53;10.63;;;;;;;0.26;87.42;98875.47;5013220;28;20259;-73
2021/01/25 01:34:48;;;;;;;16.17;13.07;;;;;;;0.22;88.17;98869.88;5012714;28;20180;-74
2021/01/25 01:37:14;;;;;;;11.90;8.77;;;;;;;0.22;88.18;98863.69;5012048;28;20188;-73
2021/01/25 01:39:39;;;;;;;17.50;11.43;;;;;;;0.17;87.77;98861.06;5012613;28;20184;-73
2021/01/25 01:42:06;;;;;;;20.77;13.57;;;;;;;0.19;88.15;98858.91;5012622;28;20231;-73
2021/01/25 01:44:31;;;;;;;14.50;10.53;;;;;;;0.14;87.76;98859.72;5012551;28;20185;-72
2021/01/25 01:46:57;;;;;;;10.27;9.30;;;;;;;0.14;88.45;98866.97;5010834;28;20958;-72
2021/01/25 01:49:23;;;;;;;17.83;11.37;;;;;;;0.12;88.10;98855.72;5012602;28;20507;-73
2021/01/25 01:51:49;;;;;;;26.63;15.47;;;;;;;0.11;87.67;98856.81;5011109;28;20203;-73
2021/01/25 01:54:15;;;;;;;24.97;14.77;;;;;;;0.08;88.25;98858.19;5012388;28;20172;-73
2021/01/25 01:56:40;;;;;;;10.97;9.20;;;;;;;0.05;88.29;98849.88;5012088;28;20199;-73
2021/01/25 01:59:05;;;;;;;9.60;8.43;;;;;;;0.02;88.25;98858.50;5012244;28;20927;-72
2021/01/25 02:01:31;;;;;;;20.67;15.50;;;;;;;0.03;88.86;98862.78;5012294;28;20187;-72
2021/01/25 02:03:58;;;;;;;20.07;15.00;;;;;;;-0.01;89.00;98857.97;5012490;28;20183;-73
2021/01/25 02:06:25;;;;;;;29.63;15.20;;;;;;;0.01;88.23;98864.97;5011729;28;20184;-73
2021/01/25 02:08:52;;;;;;;16.47;8.90;;;;;;;-0.02;88.63;98858.25;5012212;28;20470;-73
2021/01/25 02:11:19;;;;;;;22.20;14.87;;;;;;;-0.07;89.22;98853.72;5012112;28;20415;-73
2021/01/25 02:13:46;;;;;;;15.40;9.60;;;;;;;-0.06;89.10;98859.91;5012036;28;20440;-73
2021/01/25 02:16:11;;;;;;;13.70;11.03;;;;;;;-0.08;88.50;98854.81;5011131;28;20477;-73
2021/01/25 02:18:37;;;;;;;23.93;16.93;;;;;;;-0.08;88.69;98859.38;5010234;28;20510;-73
2021/01/25 02:21:04;;;;;;;10.63;7.23;;;;;;;-0.08;88.25;98854.00;5010659;28;20554;-73
2021/01/25 02:24:21;;;;;;;26.03;15.57;;;;;;;-0.11;88.90;98855.38;5011850;28;20192;-73
2021/01/25 02:27:06;;;;;;;13.37;8.60;;;;;;;-0.14;89.35;98864.00;4972873;28;20524;-73
2021/01/25 02:29:32;;;;;;;26.43;18.60;;;;;;;-0.17;88.82;98866.41;5010384;28;20506;-73
2021/01/25 02:31:57;;;;;;;24.63;15.30;;;;;;;-0.19;89.03;98858.66;5010717;28;20772;-73
2021/01/25 02:34:24;;;;;;;10.23;7.07;;;;;;;-0.19;89.56;98858.66;5011931;28;20457;-73
2021/01/25 02:36:51;;;;;;;10.57;7.40;;;;;;;-0.19;88.83;98860.53;5010843;28;20173;-72
2021/01/25 02:39:18;;;;;;;24.13;14.33;;;;;;;-0.21;89.15;98854.66;5011510;28;20426;-73
2021/01/25 02:41:44;;;;;;;9.87;5.50;;;;;;;-0.22;89.22;98861.09;5011328;28;20435;-73
2021/01/25 02:44:10;;;;;;;20.30;13.13;;;;;;;-0.25;89.27;98854.41;5011349;28;20416;-73
2021/01/25 02:46:36;;;;;;;15.67;11.37;;;;;;;-0.27;89.11;98855.78;5010747;28;20185;-73
2021/01/25 02:49:02;;;;;;;12.93;10.40;;;;;;;-0.30;89.38;98865.16;5011457;28;20273;-73
2021/01/25 02:51:27;;;;;;;12.13;8.13;;;;;;;-0.33;89.37;98868.41;5011175;28;20923;-73
2021/01/25 02:53:53;;;;;;;25.30;16.27;;;;;;;-0.32;89.89;98860.09;5011283;28;20180;-73
2021/01/25 02:56:18;;;;;;;13.70;7.50;;;;;;;-0.33;89.33;98865.72;5010639;28;20181;-73
2021/01/25 02:58:46;;;;;;;16.00;12.00;;;;;;;-0.34;89.08;98866.81;5011155;28;20215;-72
2021/01/25 03:01:11;;;;;;;8.87;7.70;;;;;;;-0.35;89.52;98862.53;5011071;28;20260;-73
2021/01/25 03:03:38;;;;;;;9.80;8.50;;;;;;;-0.35;89.48;98859.84;5011119;28;20943;-73
2021/01/25 03:06:04;;;;;;;10.93;9.33;;;;;;;-0.32;88.84;98864.66;5011065;28;20251;-73
2021/01/25 03:08:30;;;;;;;12.83;6.23;;;;;;;-0.33;88.92;98863.84;5010281;28;20494;-73
2021/01/25 03:10:55;;;;;;;14.53;8.20;;;;;;;-0.33;88.19;98863.84;5011232;28;20271;-73
2021/01/25 03:13:26;;;;;;;12.47;9.67;;;;;;;-0.32;88.71;98864.66;5011000;28;20172;-73
2021/01/25 03:15:54;;;;;;;11.97;7.40;;;;;;;-0.31;87.96;98868.94;5010672;28;20180;-73
2021/01/25 03:18:20;;;;;;;10.80;8.50;;;;;;;-0.32;88.07;98867.31;5010939;28;20430;-73
2021/01/25 03:20:45;;;;;;;23.17;13.53;;;;;;;-0.31;87.80;98867.03;5011531;28;20424;-74
2021/01/25 03:23:10;;;;;;;15.50;10.53;;;;;;;-0.30;87.82;98867.84;5013747;28;20258;-73
2021/01/25 03:25:36;;;;;;;11.17;9.17;;;;;;;-0.30;87.59;98867.84;5030878;28;20634;-73
2021/01/25 03:28:01;;;;;;;14.07;7.07;;;;;;;-0.28;87.22;98867.59;5028795;28;20168;-72
2021/01/25 03:30:26;;;;;;;14.33;10.00;;;;;;;-0.28;87.16;98876.44;5030897;28;20258;-74
2021/01/25 03:32:52;;;;;;;16.27;12.03;;;;;;;-0.31;86.66;98883.16;5030973;28;20240;-73
2021/01/25 03:35:17;;;;;;;18.50;13.93;;;;;;;-0.30;87.25;98881.25;5030781;28;20533;-73
2021/01/25 03:37:42;;;;;;;18.20;14.30;;;;;;;-0.31;87.01;98877.78;5030304;28;20631;-73
2021/01/25 03:40:08;;;;;;;19.10;11.03;;;;;;;-0.32;86.91;98889.59;5030778;28;20178;-73
2021/01/25 03:42:34;;;;;;;21.87;13.87;;;;;;;-0.29;86.75;98885.53;5030938;28;20591;-73
2021/01/25 03:45:00;;;;;;;19.90;10.73;;;;;;;-0.28;86.92;98881.81;5030482;28;20176;-72
2021/01/25 03:47:25;;;;;;;18.60;16.10;;;;;;;-0.27;86.81;98888.78;5029720;28;20187;-73
2021/01/25 03:49:50;;;;;;;22.67;16.33;;;;;;;-0.25;85.73;98885.81;5030300;28;20200;-73
2021/01/25 03:52:16;;;;;;;16.67;14.27;;;;;;;-0.27;85.95;98882.63;5030505;28;20184;-72
2021/01/25 03:54:41;;;;;;;22.63;15.87;;;;;;;-0.32;86.99;98880.75;5029329;28;20168;-73
2021/01/25 03:57:07;;;;;;;15.97;13.33;;;;;;;-0.41;87.05;98891.28;5030017;28;20207;-73
2021/01/25 03:59:32;;;;;;;16.37;12.23;;;;;;;-0.39;86.62;98891.00;5030612;28;20267;-73
2021/01/25 04:01:58;;;;;;;16.40;13.17;;;;;;;-0.49;86.56;98886.47;5030775;28;20172;-73
2021/01/25 04:04:24;;;;;;;14.40;11.77;;;;;;;-0.55;87.14;98887.59;5029320;28;20180;-73
2021/01/25 04:06:50;;;;;;;15.30;13.53;;;;;;;-0.51;87.00;98895.91;5029971;28;20446;-73
2021/01/25 04:09:15;;;;;;;15.77;13.77;;;;;;;-0.50;87.18;98892.13;5030407;28;20236;-73
2021/01/25 04:11:43;;;;;;;16.33;13.10;;;;;;;-0.51;87.34;98891.31;5031532;28;20525;-73
2021/01/25 04:14:09;;;;;;;18.80;13.50;;;;;;;-0.49;87.03;98897.22;5033444;28;20176;-73
2021/01/25 04:16:36;;;;;;;19.87;14.37;;;;;;;-0.47;86.67;98899.63;5037880;28;20425;-73
2021/01/25 04:19:03;;;;;;;19.77;13.93;;;;;;;-0.63;87.31;98896.22;5030937;28;20659;-72
2021/01/25 04:21:28;;;;;;;20.87;14.53;;;;;;;-0.58;88.14;98895.38;5029202;28;20462;-73
2021/01/25 04:23:53;;;;;;;16.50;13.67;;;;;;;-0.54;87.24;98904.50;5030712;28;20513;-72
2021/01/25 04:26:19;;;;;;;15.37;13.80;;;;;;;-0.52;87.53;98896.97;5030172;28;20259;-73
2021/01/25 04:28:44;;;;;;;17.57;14.43;;;;;;;-0.55;87.45;98906.38;5030439;28;20591;-73
2021/01/25 04:31:09;;;;;;;20.37;14.23;;;;;;;-0.67;87.34;98917.44;5030610;28;20222;-73
2021/01/25 04:33:35;;;;;;;15.20;13.63;;;;;;;-0.70;87.82;98914.50;5030408;28;20176;-73
2021/01/25 04:36:01;;;;;;;14.67;13.17;;;;;;;-0.71;87.61;98915.56;5030400;28;20191;-73
2021/01/25 04:38:26;;;;;;;15.90;12.80;;;;;;;-0.77;87.75;98917.47;5028775;28;20191;-73
2021/01/25 04:40:51;;;;;;;17.27;13.60;;;;;;;-0.88;88.20;98917.78;5031808;28;20628;-73
2021/01/25 04:43:19;;;;;;;17.07;13.43;;;;;;;-0.94;88.88;98919.69;5033757;28;20537;-73
2021/01/25 04:45:46;;;;;;;16.83;14.40;;;;;;;-0.98;89.09;98916.75;5033680;28;20179;-73
2021/01/25 04:48:12;;;;;;;19.77;14.53;;;;;;;-1.03;89.76;98929.34;5025761;28;20427;-73
2021/01/25 04:50:38;;;;;;;17.87;14.30;;;;;;;-1.26;89.68;98928.06;5013631;28;20497;-73
2021/01/25 04:53:05;;;;;;;15.43;13.83;;;;;;;-1.19;90.16;98928.59;5013786;28;20173;-73
2021/01/25 04:55:32;;;;;;;15.40;13.83;;;;;;;-1.15;90.13;98923.50;5012421;28;20430;-73
2021/01/25 04:57:58;;;;;;;13.67;12.20;;;;;;;-0.89;90.01;98925.00;5013254;28;20428;-73
2021/01/25 05:00:24;;;;;;;13.97;12.53;;;;;;;-0.71;89.73;98937.81;5012490;28;20627;-73
2021/01/25 05:02:49;;;;;;;13.60;12.20;;;;;;;-0.63;88.94;98931.06;5013554;28;20503;-73
2021/01/25 05:05:14;;;;;;;13.80;12.50;;;;;;;-0.56;88.14;98934.28;5012563;28;20177;-73
2021/01/25 05:07:40;;;;;;;14.13;11.50;;;;;;;-0.61;87.53;98924.34;5011591;28;20223;-73
2021/01/25 05:10:07;;;;;;;12.10;10.70;;;;;;;-0.63;87.36;98934.56;5013190;28;20215;-73
2021/01/25 05:12:46;;;;;;;14.30;11.57;;;;;;;-0.67;87.37;98932.72;5013243;28;20192;-73
2021/01/25 05:15:24;;;;;;;11.73;10.57;;;;;;;-0.80;87.55;98933.31;5013259;28;20903;-73
2021/01/25 05:17:50;;;;;;;11.80;10.63;;;;;;;-0.88;87.60;98931.16;5012961;28;20480;-73
2021/01/25 05:20:15;;;;;;;12.60;11.00;;;;;;;-1.06;87.77;98932.56;5013481;28;20428;-72
2021/01/25 05:22:40;;;;;;;17.30;12.63;;;;;;;-1.23;88.42;98931.00;5012006;28;20246;-73
2021/01/25 05:25:10;;;;;;;17.23;12.37;;;;;;;-1.30;88.33;98935.88;5013110;28;20185;-73
2021/01/25 05:27:36;;;;;;;12.37;11.17;;;;;;;-1.32;88.73;98926.47;5011685;28;20250;-73
2021/01/25 05:30:08;;;;;;;13.07;10.80;;;;;;;-1.36;89.41;98931.56;5011756;28;20870;-73
2021/01/25 05:32:44;;;;;;;15.50;11.03;;;;;;;-1.37;89.87;98929.97;5011901;28;20187;-73
2021/01/25 05:35:09;;;;;;;11.93;10.37;;;;;;;-1.39;90.23;98928.63;5011628;28;20416;-75
2021/01/25 05:37:35;;;;;;;12.23;10.87;;;;;;;-1.40;90.39;98927.03;5011168;28;20446;-74
2021/01/25 05:40:01;;;;;;;11.97;10.77;;;;;;;-1.32;90.10;98934.50;5012722;28;20517;-74
2021/01/25 05:42:36;;;;;;;13.27;11.43;;;;;;;-1.24;90.98;98936.66;5012922;28;20575;-74
2021/01/25 05:45:10;;;;;;;13.80;11.43;;;;;;;-1.15;90.26;98926.19;5011482;28;20192;-74
2021/01/25 05:47:46;;;;;;;11.43;10.27;;;;;;;-1.11;90.50;98932.59;5012267;28;20437;-75
2021/01/25 05:50:30;;;;;;;11.73;10.53;;;;;;;-1.02;90.63;98931.75;5013883;28;20837;-73
2021/01/25 05:52:58;;;;;;;11.40;9.73;;;;;;;-0.99;89.76;98933.91;5013475;28;20439;-73
2021/01/25 05:55:24;;;;;;;10.43;9.37;;;;;;;-1.01;89.52;98937.94;5011440;28;20510;-74
2021/01/25 05:57:49;;;;;;;11.50;10.10;;;;;;;-0.98;89.24;98938.19;5012267;28;21057;-73
2021/01/25 06:00:15;;;;;;;12.60;9.40;;;;;;;-0.98;89.43;98937.38;5012444;28;20418;-73
2021/01/25 06:02:46;;;;;;;12.97;9.80;;;;;;;-1.01;88.13;98936.06;5012384;28;20208;-73
2021/01/25 06:05:23;;;;;;;12.83;9.87;;;;;;;-1.09;88.60;98938.47;5011235;28;20530;-73
2021/01/25 06:07:50;;;;;;;21.17;12.77;;;;;;;-1.18;88.81;98946.25;5011062;28;20891;-73
2021/01/25 06:10:22;;;;;;;18.87;14.80;;;;;;;-1.26;89.33;98944.16;5012262;28;20482;-74
2021/01/25 06:12:56;;;;;;;18.93;13.20;;;;;;;-1.15;89.31;98942.25;5011087;28;20946;-74
2021/01/25 06:15:26;;;;;;;12.83;11.30;;;;;;;-0.92;88.81;98957.72;5011105;28;20946;-74
2021/01/25 06:17:56;;;;;;;11.43;10.27;;;;;;;-0.88;88.54;98958.78;5012150;28;20419;-73
2021/01/25 06:20:21;;;;;;;11.17;10.17;;;;;;;-0.86;87.71;98956.66;5012266;28;20434;-74
2021/01/25 06:22:47;;;;;;;11.60;10.27;;;;;;;-0.85;87.71;98954.78;5012287;28;20411;-74
2021/01/25 06:25:15;;;;;;;11.50;10.30;;;;;;;-0.84;87.46;98957.19;5010706;28;20177;-74
2021/01/25 06:27:42;;;;;;;12.97;11.77;;;;;;;-0.85;87.24;98963.63;5011942;28;20204;-74
2021/01/25 06:30:11;;;;;;;11.93;10.60;;;;;;;-0.86;86.87;98967.38;5012081;28;20466;-74
2021/01/25 06:32:40;;;;;;;16.27;11.80;;;;;;;-0.88;86.68;98974.06;5012212;28;20637;-73
2021/01/25 06:35:07;;;;;;;22.00;15.23;;;;;;;-0.99;86.97;98981.34;5010732;28;20423;-73
2021/01/25 06:37:37;;;;;;;13.33;12.13;;;;;;;-1.25;87.31;98976.03;5011655;28;20420;-73
2021/01/25 06:40:06;;;;;;;13.07;11.67;;;;;;;-1.31;87.62;98982.44;5012053;28;20419;-73
2021/01/25 06:42:35;;;;;;;16.50;10.90;;;;;;;-1.42;88.29;98986.22;5010320;28;20446;-73
2021/01/25 06:45:01;;;;;;;13.10;10.60;;;;;;;-1.52;88.88;98992.38;5011679;28;20907;-73
2021/01/25 06:47:28;;;;;;;12.97;11.37;;;;;;;-1.54;89.28;98999.06;5011297;28;20466;-74
2021/01/25 06:49:54;;;;;;;13.47;11.97;;;;;;;-1.47;89.75;99001.47;5010589;28;20587;-74
2021/01/25 06:52:19;;;;;;;19.20;12.20;;;;;;;-1.52;89.83;99007.66;5010298;28;20436;-74
2021/01/25 06:54:45;;;;;;;12.43;11.23;;;;;;;-1.66;89.82;99011.91;5011566;28;20533;-74
2021/01/25 06:57:23;;;;;;;17.17;12.60;;;;;;;-1.74;90.08;99007.88;5023828;28;20218;-74
2021/01/25 06:59:50;;;;;;;17.53;12.80;;;;;;;-1.81;90.58;99016.19;5031342;28;20624;-75
2021/01/25 07:02:19;;;;;;;16.47;13.77;;;;;;;-1.84;90.99;99015.91;5031310;28;20418;-74
2021/01/25 07:04:50;;;;;;;17.87;14.43;;;;;;;-1.75;91.27;99021.53;5030833;28;20415;-75
2021/01/25 07:07:29;;;;;;;14.63;13.10;;;;;;;-1.86;90.93;99024.22;5030464;28;20768;-74
2021/01/25 07:09:57;;;;;;;18.07;14.27;;;;;;;-1.87;91.15;99025.28;5031279;28;20450;-74
2021/01/25 07:12:25;;;;;;;17.43;14.37;;;;;;;-1.86;91.80;99034.91;5031050;28;20506;-75
2021/01/25 07:14:52;;;;;;;18.30;15.07;;;;;;;-1.78;91.87;99036.25;5031067;28;20426;-75
2021/01/25 07:17:17;;;;;;;16.23;13.47;;;;;;;-1.68;92.21;99041.63;5030478;28;20423;-75
2021/01/25 07:19:44;;;;;;;18.47;14.17;;;;;;;-1.57;91.75;99040.59;5031198;28;20476;-76
2021/01/25 07:22:10;;;;;;;14.97;13.47;;;;;;;-1.46;91.75;99044.06;5031141;28;20179;-76
2021/01/25 07:24:37;;;;;;;17.20;13.93;;;;;;;-1.48;91.43;99042.72;5030916;28;20636;-75
2021/01/25 07:27:03;;;;;;;18.93;13.13;;;;;;;-1.48;91.18;99053.44;5030233;28;20262;-75
2021/01/25 07:29:28;;;;;;;16.53;12.50;;;;;;;-1.42;91.31;99049.69;5030619;28;20560;-75
2021/01/25 07:31:56;;;;;;;17.47;12.27;;;;;;;-1.38;91.06;99056.13;5030705;28;20183;-75
2021/01/25 07:34:23;;;;;;;13.53;12.13;;;;;;;-1.31;91.09;99062.81;5031031;28;20225;-75
2021/01/25 07:36:48;;;;;;;13.93;11.90;;;;;;;-1.31;90.70;99057.44;5028774;28;20956;-75
2021/01/25 07:39:16;;;;;;;22.83;13.47;;;;;;;-1.34;91.42;99066.03;5030685;28;20450;-74
2021/01/25 07:41:42;;;;;;;14.40;12.90;;;;;;;-1.15;91.17;99068.19;5030866;28;20179;-75
2021/01/25 07:44:09;;;;;;;16.80;11.47;;;;;;;-1.11;90.96;99061.22;5030642;28;20425;-75
2021/01/25 07:46:35;;;;;;;16.60;10.73;;;;;;;-1.20;90.11;99067.09;5029910;28;20430;-75
2021/01/25 07:49:00;;;;;;;16.80;11.23;;;;;;;-1.27;90.16;99069.25;5030487;28;20791;-75
2021/01/25 07:51:28;;;;;;;11.23;10.03;;;;;;;-1.34;89.41;99074.06;5030484;28;20945;-75
2021/01/25 07:53:54;;;;;;;11.97;10.17;;;;;;;-1.33;89.72;99074.88;5029304;28;20626;-75
2021/01/25 07:56:23;;;;;;;12.47;10.03;;;;;;;-1.35;90.08;99088.53;5029906;28;20553;-75
2021/01/25 07:58:49;;;;;;;14.20;10.73;;;;;;;-1.36;90.09;99083.44;5030486;28;20505;-75
2021/01/25 08:01:22;;;;;;;13.83;10.47;;;;;;;-1.33;90.06;99091.75;5030393;28;20509;-73
2021/01/25 08:03:51;;;;;;;13.73;10.30;;;;;;;-1.25;90.04;99087.75;5030483;28;20164;-73
2021/01/25 08:06:17;;;;;;;12.07;10.37;;;;;;;-1.29;90.34;99082.13;5029885;28;20433;-73
2021/01/25 08:08:47;;;;;;;11.70;10.47;;;;;;;-1.28;90.39;99099.81;5029773;28;20823;-73
2021/01/25 08:11:13;;;;;;;14.60;12.40;;;;;;;-1.22;90.67;99093.38;5030630;28;20418;-73
2021/01/25 08:13:48;;;;;;;15.67;13.60;;;;;;;-1.15;91.06;99098.47;5030506;28;20433;-75
2021/01/25 08:16:21;;;;;;;15.47;13.97;;;;;;;-1.06;91.15;99098.72;5032084;28;20570;-75
2021/01/25 08:18:57;;;;;;;17.93;12.93;;;;;;;-1.03;91.54;99104.34;5034552;28;20428;-76
2021/01/25 08:21:27;;;;;;;16.90;13.23;;;;;;;-0.99;92.03;99104.63;5034158;28;20422;-75
2021/01/25 08:23:57;;;;;;;14.40;12.97;;;;;;;-0.85;92.08;99108.38;5034637;28;20411;-72
2021/01/25 08:26:24;;;;;;;13.23;11.90;;;;;;;-0.72;91.80;99107.84;5033850;28;20422;-76
2021/01/25 08:28:58;;;;;;;14.67;12.80;;;;;;;-0.69;91.14;99115.34;5034220;28;20462;-75
2021/01/25 08:31:41;;;;;;;13.57;11.93;;;;;;;-0.77;90.19;99118.53;5033014;28;20434;-75
2021/01/25 08:34:15;;;;;;;18.97;13.20;;;;;;;-0.87;89.76;99123.09;5032749;28;20441;-75
2021/01/25 08:36:41;;;;;;;16.50;12.50;;;;;;;-0.84;90.24;99120.72;5032225;28;20429;-75
2021/01/25 08:39:11;;;;;;;17.60;14.50;;;;;;;-0.83;89.80;99122.31;5033862;28;20421;-75
2021/01/25 08:41:37;;;;;;;19.27;15.10;;;;;;;-1.00;90.51;99127.16;5034278;28;20254;-76
2021/01/25 08:44:15;;;;;;;19.80;15.23;;;;;;;-0.82;91.02;99126.59;5034330;28;20803;-75
2021/01/25 08:46:42;;;;;;;61.13;27.00;;;;;;;-0.84;90.92;99136.78;5021626;28;20424;-76
2021/01/25 08:49:12;;;;;;;51.90;24.40;;;;;;;-0.98;91.04;99135.72;5013713;28;20490;-76
2021/01/25 08:51:38;;;;;;;27.13;18.20;;;;;;;-0.74;91.30;99134.09;5012555;28;20446;-75
2021/01/25 08:54:07;;;;;;;19.97;15.97;;;;;;;-0.55;91.04;99149.66;5013799;28;20418;-76
2021/01/25 08:56:39;;;;;;;15.47;13.87;;;;;;;-0.36;90.98;99148.81;5013347;28;20428;-75
2021/01/25 08:59:09;;;;;;;16.63;14.83;;;;;;;-0.34;90.25;99151.22;5013693;28;20424;-73
2021/01/25 09:01:35;;;;;;;19.87;15.50;;;;;;;-0.40;89.73;99152.31;5013623;28;20470;-73
2021/01/25 09:04:01;;;;;;;13.07;11.67;;;;;;;-0.49;89.41;99164.66;5013717;28;20447;-73
2021/01/25 09:06:27;;;;;;;12.03;8.33;;;;;;;-0.56;88.63;99159.56;5011421;28;20641;-73
2021/01/25 09:08:52;;;;;;;5.37;4.87;;;;;;;-0.52;87.27;99162.50;5012597;28;20278;-73
2021/01/25 09:11:17;;;;;;;5.90;5.20;;;;;;;-0.49;87.16;99168.13;5013483;28;20176;-73
2021/01/25 09:13:42;;;;;;;6.97;5.37;;;;;;;-0.44;85.76;99172.69;5013231;28;20564;-73
2021/01/25 09:16:08;;;;;;;7.57;4.83;;;;;;;-0.43;85.78;99169.75;5012843;28;20181;-73
2021/01/25 09:18:33;;;;;;;4.70;4.20;;;;;;;-0.38;86.20;99174.28;5013006;28;20543;-73
2021/01/25 09:20:59;;;;;;;7.93;7.03;;;;;;;-0.33;85.86;99168.91;5013111;28;20169;-74
2021/01/25 09:23:24;;;;;;;3.30;2.70;;;;;;;-0.25;85.53;99183.66;5013252;28;20177;-73
2021/01/25 09:25:50;;;;;;;6.97;4.67;;;;;;;-0.24;85.65;99172.66;5012812;28;20164;-74
2021/01/25 09:28:15;;;;;;;6.40;5.30;;;;;;;-0.18;85.29;99174.25;5012596;28;20168;-74
2021/01/25 09:30:40;;;;;;;9.90;4.47;;;;;;;-0.14;84.81;99171.84;5011326;28;20183;-73
2021/01/25 09:33:06;;;;;;;6.47;5.87;;;;;;;-0.12;85.01;99186.59;5013095;28;20176;-73
2021/01/25 09:35:32;;;;;;;9.20;6.40;;;;;;;-0.07;85.42;99181.19;5004330;28;20177;-73
2021/01/25 09:37:58;;;;;;;10.47;9.47;;;;;;;-0.04;84.92;99183.34;5024978;28;20177;-74
2021/01/25 09:40:23;;;;;;;5.97;5.40;;;;;;;0.01;84.86;99190.59;5012861;28;20183;-73
2021/01/25 09:42:49;;;;;;;5.27;3.23;;;;;;;0.07;85.62;99194.84;5012843;28;20181;-73
2021/01/25 09:45:17;;;;;;;6.43;5.77;;;;;;;0.11;84.46;99187.06;5011432;28;20177;-74
2021/01/25 09:47:42;;;;;;;8.83;6.77;;;;;;;0.14;84.21;99194.56;5031115;28;20179;-73
2021/01/25 09:50:16;;;;;;;5.77;4.13;;;;;;;0.19;84.27;99195.38;5032336;28;20845;-73
2021/01/25 09:52:43;;;;;;;9.30;7.07;;;;;;;0.21;84.07;99195.09;5032402;28;20192;-73
2021/01/25 09:55:09;;;;;;;3.37;3.07;;;;;;;0.23;83.88;99191.03;5032261;28;20430;-73
2021/01/25 09:57:34;;;;;;;10.23;9.13;;;;;;;0.22;83.36;99207.44;5031928;28;20411;-74
2021/01/25 10:00:00;;;;;;;7.83;4.90;;;;;;;0.20;84.05;99206.91;5030862;28;20964;-74
2021/01/25 10:02:25;;;;;;;6.43;5.27;;;;;;;0.12;83.50;99208.25;5032080;28;20182;-74
2021/01/25 10:04:50;;;;;;;8.83;4.43;;;;;;;0.10;83.66;99206.94;5031761;28;20216;-74
2021/01/25 10:07:16;;;;;;;4.03;3.63;;;;;;;0.11;83.11;99217.41;5030516;28;20172;-75
2021/01/25 10:09:42;;;;;;;7.27;6.53;;;;;;;0.11;83.68;99214.72;5031820;28;20283;-74
2021/01/25 10:12:07;;;;;;;8.33;5.77;;;;;;;0.14;83.63;99214.16;5031834;28;20186;-74
2021/01/25 10:14:32;;;;;;;8.40;7.47;;;;;;;0.17;83.44;99215.50;5031802;28;20168;-74
2021/01/25 10:16:59;;;;;;;10.77;8.23;;;;;;;0.26;82.62;99216.53;5031294;28;20171;-75
2021/01/25 10:19:24;;;;;;;6.23;5.70;;;;;;;0.33;82.19;99213.59;5014242;28;20637;-76
2021/01/25 10:21:50;;;;;;;7.43;6.17;;;;;;;0.39;81.36;99215.16;5011564;28;20547;-74
2021/01/25 10:24:15;;;;;;;7.57;6.83;;;;;;;0.53;81.82;99218.88;5018240;28;20259;-75
2021/01/25 10:26:40;;;;;;;9.77;7.13;;;;;;;0.65;80.74;99223.91;5035284;28;20176;-74
2021/01/25 10:29:06;;;;;;;20.40;6.23;;;;;;;0.83;80.43;99231.34;5033394;28;20433;-74
2021/01/25 10:31:31;;;;;;;9.03;8.13;;;;;;;0.84;79.54;99236.44;5030881;28;20176;-75
2021/01/25 10:33:57;;;;;;;9.67;8.67;;;;;;;0.93;80.03;99227.81;5030079;28;20171;-75
2021/01/25 10:36:22;;;;;;;12.97;11.00;;;;;;;0.95;79.61;99229.13;5029415;28;20342;-75
2021/01/25 10:38:48;;;;;;;12.43;10.97;;;;;;;0.98;80.26;99238.53;5028944;28;20191;-75
2021/01/25 10:41:13;;;;;;;4.83;4.03;;;;;;;0.98;78.82;99242.00;5012995;28;20176;-75
2021/01/25 10:43:39;;;;;;;11.50;9.97;;;;;;;1.05;79.61;99245.22;5010073;28;20424;-74
2021/01/25 10:46:04;;;;;;;10.27;8.60;;;;;;;1.08;79.26;99250.03;5010824;28;20219;-75
2021/01/25 10:48:30;;;;;;;9.00;8.13;;;;;;;1.12;79.11;99247.59;5011301;28;20628;-74
2021/01/25 10:50:55;;;;;;;7.30;6.60;;;;;;;1.14;79.34;99251.59;5011219;28;20184;-74
2021/01/25 10:53:20;;;;;;;7.50;5.67;;;;;;;1.19;79.35;99254.28;5011311;28;20187;-74
2021/01/25 10:55:46;;;;;;;7.33;4.97;;;;;;;1.18;78.75;99252.66;5011507;28;20241;-74
2021/01/25 10:58:11;;;;;;;13.40;10.87;;;;;;;1.25;78.41;99254.22;5010710;28;20565;-74
2021/01/25 11:00:37;;;;;;;9.57;8.60;;;;;;;1.33;78.21;99261.72;5011067;28;20649;-74
2021/01/25 11:03:03;;;;;;;8.90;6.77;;;;;;;1.42;77.64;99263.50;5011149;28;20622;-73
2021/01/25 11:05:28;;;;;;;4.63;4.23;;;;;;;1.36;77.27;99267.34;5011084;28;20168;-72
2021/01/25 11:07:54;;;;;;;5.67;5.13;;;;;;;1.31;77.30;99266.59;5010063;28;20447;-74
2021/01/25 11:10:25;;;;;;;8.57;7.40;;;;;;;1.31;78.01;99271.97;5010975;28;20718;-73
2021/01/25 11:12:51;;;;;;;10.63;9.50;;;;;;;1.34;78.17;99269.50;5010870;28;20180;-73
2021/01/25 11:15:17;;;;;;;7.10;6.40;;;;;;;1.35;77.36;99264.94;5011023;28;20412;-74
2021/01/25 11:17:42;;;;;;;10.73;9.63;;;;;;;1.39;77.76;99274.03;5023270;28;20186;-74
2021/01/25 11:20:09;;;;;;;3.07;2.53;;;;;;;1.42;77.69;99270.78;5030573;28;20545;-73
2021/01/25 11:22:34;;;;;;;7.73;6.90;;;;;;;1.41;77.55;99269.19;5030614;28;20172;-73